Columbus, Montana
Current Conditions -  °F | °C
As of 10:53 PM on Wednesday 28 Jan 2015 (Local Time) from KBIL Reporting Station
Broken Clouds Broken Clouds  
Wind Chill: 38°   Ceiling: 8500
Heat Index: 38°   Visibility: 10mi
Dew Point: 28°   Wind: 0mph
Humidity: 68%   Direction: NA
Pressure: 30.41"   Gusts: NA
Location:  45.64°N, 109.25°W
Report Text: KBIL 290553Z 00000KT 10SM FEW055 BKN085 03/M02 A3041 RMK AO2 SLP311 T00331022 10072 20033 51017
Loading
Personal Weather Stations






























Interactive Weather Map New forecast layout! Learn more

10-Day Weather Forecast

Advertisements
Track Severe Weather on mobile